Time;durP1;ratioP1;P1;durP2;ratioP2;P2;SDS_P1;SDS_P2;PMS_P1;PMS_P2;Temp;Humidity;BMP_temperature;BMP_pressure;BME280_temperature;BME280_humidity;BME280_pressure;Samples;Min_cycle;Max_cycle;Signal;HPM_P1;HPM_P2
2023/08/24 00:00:50;;;;;;;2.88;1.73;;;18.60;99.90;;;;;;5051271;28;20067;-50
2023/08/24 00:03:16;;;;;;;2.17;1.92;;;18.50;99.90;;;;;;5053373;28;20036;-47
2023/08/24 00:05:43;;;;;;;2.15;1.95;;;18.50;99.90;;;;;;5052167;28;20029;-51
2023/08/24 00:08:09;;;;;;;4.85;2.10;;;18.50;99.90;;;;;;5053251;28;20409;-51
2023/08/24 00:10:37;;;;;;;5.60;2.13;;;18.50;99.90;;;;;;5051896;28;20063;-50
2023/08/24 00:13:03;;;;;;;2.60;1.98;;;18.50;99.90;;;;;;5053354;28;20099;-52
2023/08/24 00:15:29;;;;;;;1.70;1.60;;;18.50;99.90;;;;;;5050448;28;20060;-53
2023/08/24 00:17:55;;;;;;;3.15;1.70;;;18.50;99.90;;;;;;5053060;28;20033;-52
2023/08/24 00:20:21;;;;;;;2.55;1.73;;;18.50;99.90;;;;;;5051571;28;20549;-51
2023/08/24 00:22:46;;;;;;;5.57;1.80;;;18.50;99.90;;;;;;5050992;28;20032;-52
2023/08/24 00:25:13;;;;;;;2.15;1.90;;;18.50;99.90;;;;;;5051751;28;20033;-50
2023/08/24 00:27:40;;;;;;;9.40;2.22;;;18.50;99.90;;;;;;5053216;28;20111;-41
2023/08/24 00:30:07;;;;;;;4.10;2.13;;;18.50;99.90;;;;;;5052716;28;20021;-40
2023/08/24 00:32:34;;;;;;;5.80;1.90;;;18.50;99.90;;;;;;5051953;28;20032;-38
2023/08/24 00:35:09;;;;;;;3.50;2.15;;;18.50;99.90;;;;;;5052816;28;20451;-39
2023/08/24 00:37:35;;;;;;;4.00;2.35;;;18.50;99.90;;;;;;5053048;28;20033;-41
2023/08/24 00:40:09;;;;;;;4.20;2.13;;;18.50;99.90;;;;;;5051435;28;20033;-39
2023/08/24 00:42:42;;;;;;;3.85;2.20;;;18.60;99.90;;;;;;5052622;28;20037;-39
2023/08/24 00:45:09;;;;;;;2.50;2.30;;;18.60;99.90;;;;;;5052532;28;20036;-41
2023/08/24 00:47:36;;;;;;;5.93;2.17;;;18.60;99.90;;;;;;5050906;28;20027;-41
2023/08/24 00:50:03;;;;;;;4.55;2.40;;;18.50;99.90;;;;;;5050313;28;20033;-40
2023/08/24 00:52:31;;;;;;;7.07;2.13;;;18.50;99.90;;;;;;5052400;28;20031;-41
2023/08/24 00:55:01;;;;;;;3.03;1.98;;;18.50;99.90;;;;;;5051723;28;20291;-40
2023/08/24 00:57:30;;;;;;;3.15;2.10;;;18.50;99.90;;;;;;5050823;28;20029;-42
2023/08/24 01:00:14;;;;;;;4.18;2.20;;;18.50;99.90;;;;;;5052453;28;20033;-41
2023/08/24 01:02:40;;;;;;;5.72;2.17;;;18.50;99.90;;;;;;5049719;28;20067;-42
2023/08/24 01:05:06;;;;;;;2.83;2.03;;;18.50;99.90;;;;;;5051649;28;20428;-41
2023/08/24 01:07:34;;;;;;;2.65;2.17;;;18.50;99.90;;;;;;5051797;28;20584;-41
2023/08/24 01:10:01;;;;;;;7.40;2.35;;;18.50;99.90;;;;;;5051658;28;20363;-40
2023/08/24 01:12:44;;;;;;;2.50;2.30;;;18.50;99.90;;;;;;5036397;28;20056;-39
2023/08/24 01:15:30;;;;;;;8.00;2.45;;;18.50;99.90;;;;;;5055740;28;20103;-41
2023/08/24 01:18:00;;;;;;;8.48;2.75;;;18.50;99.90;;;;;;5056396;28;20449;-39
2023/08/24 01:20:26;;;;;;;2.10;1.90;;;18.50;99.90;;;;;;5055699;28;20466;-42
2023/08/24 01:23:08;;;;;;;6.90;2.08;;;18.50;99.90;;;;;;5037868;28;20076;-39
2023/08/24 01:25:55;;;;;;;3.55;1.90;;;18.40;99.90;;;;;;5054720;28;20469;-44
2023/08/24 01:28:21;;;;;;;3.20;2.40;;;18.40;99.90;;;;;;5056385;28;20024;-39
2023/08/24 01:30:48;;;;;;;3.17;2.10;;;18.40;99.90;;;;;;5055318;28;20090;-44
2023/08/24 01:33:14;;;;;;;3.55;2.67;;;18.40;99.90;;;;;;5056359;28;20036;-42
2023/08/24 01:35:41;;;;;;;6.35;2.53;;;18.40;99.90;;;;;;5056333;28;20481;-42
2023/08/24 01:38:07;;;;;;;2.10;1.93;;;18.40;99.90;;;;;;5055979;28;20041;-39
2023/08/24 01:40:46;;;;;;;6.95;2.72;;;18.50;99.90;;;;;;5054244;28;20442;-39
2023/08/24 01:43:14;;;;;;;4.90;2.63;;;18.50;99.90;;;;;;5054789;28;20098;-39
2023/08/24 01:45:42;;;;;;;5.10;2.58;;;18.50;99.90;;;;;;5054657;28;20052;-51
2023/08/24 01:48:09;;;;;;;5.72;2.40;;;18.60;99.90;;;;;;5055819;28;20025;-51
2023/08/24 01:50:35;;;;;;;3.40;2.78;;;18.60;99.90;;;;;;5055035;28;20032;-52
2023/08/24 01:53:02;;;;;;;2.88;2.55;;;18.60;99.90;;;;;;5054523;28;20542;-51
2023/08/24 01:55:28;;;;;;;8.40;2.97;;;18.60;99.90;;;;;;5055014;28;20028;-52
2023/08/24 01:57:55;;;;;;;6.28;3.25;;;18.60;99.90;;;;;;5048886;28;20032;-52
2023/08/24 02:00:21;;;;;;;4.57;2.85;;;18.60;99.90;;;;;;5054141;28;20032;-52
2023/08/24 02:02:47;;;;;;;5.28;3.15;;;18.50;99.90;;;;;;5055331;28;20033;-52
2023/08/24 02:05:12;;;;;;;5.47;2.65;;;18.60;99.90;;;;;;5054343;28;20473;-51
2023/08/24 02:07:40;;;;;;;4.35;2.92;;;18.60;99.90;;;;;;5047700;28;20401;-52
2023/08/24 02:10:05;;;;;;;;;;;18.60;99.90;;;;;;5054815;28;20040;-53
2023/08/24 02:12:31;;;;;;;6.70;2.53;;;18.60;99.90;;;;;;5055191;28;19908;-52
2023/08/24 02:14:57;;;;;;;4.38;2.53;;;18.60;99.90;;;;;;5055331;28;20032;-39
2023/08/24 02:17:23;;;;;;;8.57;3.30;;;18.70;99.90;;;;;;5055102;28;20086;-40
2023/08/24 02:19:49;;;;;;;7.53;3.13;;;18.80;99.90;;;;;;5054571;28;20032;-51
2023/08/24 02:22:15;;;;;;;9.05;2.72;;;18.80;99.90;;;;;;5055426;28;20032;-53
2023/08/24 02:24:40;;;;;;;6.28;2.88;;;18.70;99.90;;;;;;5053111;28;20029;-39
2023/08/24 02:27:06;;;;;;;6.13;2.63;;;18.60;99.90;;;;;;5053926;28;20389;-38
2023/08/24 02:29:31;;;;;;;9.95;3.53;;;18.60;99.90;;;;;;5054951;28;20592;-39
2023/08/24 02:31:57;;;;;;;6.28;3.10;;;18.70;99.90;;;;;;5054895;28;20045;-38
2023/08/24 02:34:23;;;;;;;7.72;3.63;;;18.70;99.90;;;;;;5054331;28;20028;-38
2023/08/24 02:36:48;;;;;;;8.85;3.65;;;18.60;99.90;;;;;;5054917;28;20040;-41
2023/08/24 02:39:14;;;;;;;4.60;3.45;;;18.60;99.90;;;;;;5053204;28;20025;-39
2023/08/24 02:41:40;;;;;;;4.30;3.65;;;18.50;99.90;;;;;;5054933;28;20035;-43
2023/08/24 02:44:06;;;;;;;3.88;2.95;;;18.40;99.90;;;;;;5053426;28;20536;-40
2023/08/24 02:46:31;;;;;;;4.22;3.33;;;18.40;99.90;;;;;;5052506;28;20608;-39
2023/08/24 02:48:57;;;;;;;5.78;3.70;;;18.40;99.90;;;;;;5053933;28;20115;-43
2023/08/24 02:51:23;;;;;;;5.18;3.65;;;18.40;99.90;;;;;;5054286;28;20036;-39
2023/08/24 02:53:49;;;;;;;4.80;3.47;;;18.40;99.90;;;;;;5053886;28;20461;-39
2023/08/24 02:56:15;;;;;;;7.95;3.92;;;18.40;99.90;;;;;;5054724;28;20025;-39
2023/08/24 02:58:41;;;;;;;8.18;3.78;;;18.40;99.90;;;;;;5054809;28;20043;-43
2023/08/24 03:01:07;;;;;;;5.88;2.85;;;18.40;99.90;;;;;;5054027;28;20025;-41
2023/08/24 03:03:34;;;;;;;6.53;3.97;;;18.40;99.90;;;;;;5035805;28;20031;-39
2023/08/24 03:06:02;;;;;;;11.70;4.43;;;18.50;99.90;;;;;;5053885;28;20052;-39
2023/08/24 03:08:29;;;;;;;5.13;3.75;;;18.50;99.90;;;;;;5051883;28;20033;-39
2023/08/24 03:10:55;;;;;;;9.15;4.03;;;18.50;99.90;;;;;;5053438;28;20025;-40
2023/08/24 03:13:20;;;;;;;6.35;4.10;;;18.50;99.90;;;;;;5052042;28;20033;-43
2023/08/24 03:15:46;;;;;;;4.80;3.85;;;18.50;99.90;;;;;;5052876;28;20436;-42
2023/08/24 03:18:12;;;;;;;5.50;4.05;;;18.50;99.90;;;;;;5052607;28;20029;-53
2023/08/24 03:20:39;;;;;;;7.07;3.42;;;18.50;99.90;;;;;;5052055;28;20043;-51
2023/08/24 03:23:05;;;;;;;5.28;4.05;;;18.50;99.90;;;;;;5051301;28;20024;-53
2023/08/24 03:25:35;;;;;;;3.75;3.08;;;18.40;99.90;;;;;;5049792;28;20082;-49
2023/08/24 03:28:00;;;;;;;7.15;3.67;;;18.40;99.90;;;;;;5052423;28;20029;-52
2023/08/24 03:30:26;;;;;;;7.45;4.20;;;18.30;99.90;;;;;;5058196;28;20435;-51
2023/08/24 03:32:52;;;;;;;8.40;4.45;;;18.20;99.90;;;;;;5058196;28;20393;-42
2023/08/24 03:35:18;;;;;;;5.22;3.58;;;18.10;99.90;;;;;;5053138;28;20075;-42
2023/08/24 03:37:43;;;;;;;6.35;3.47;;;18.10;99.90;;;;;;5052119;28;20045;-40
2023/08/24 03:40:09;;;;;;;3.65;2.88;;;18.10;99.90;;;;;;5052970;28;20025;-43
2023/08/24 03:42:35;;;;;;;12.02;5.15;;;18.20;99.90;;;;;;5050808;28;20036;-43
2023/08/24 03:45:00;;;;;;;8.73;4.28;;;18.10;99.90;;;;;;5052812;28;20474;-39
2023/08/24 03:47:26;;;;;;;8.13;4.35;;;18.10;99.90;;;;;;5051457;28;20032;-40
2023/08/24 03:49:51;;;;;;;6.45;4.10;;;18.10;99.90;;;;;;5049190;28;20620;-40
2023/08/24 03:52:17;;;;;;;7.18;4.30;;;18.10;99.90;;;;;;5050542;28;20481;-52
2023/08/24 03:54:43;;;;;;;5.15;3.42;;;18.00;99.90;;;;;;5052700;28;20600;-51
2023/08/24 03:57:08;;;;;;;4.38;3.58;;;18.00;99.90;;;;;;5034100;28;20396;-52
2023/08/24 03:59:34;;;;;;;6.68;4.20;;;18.00;99.90;;;;;;5051360;28;20032;-50
2023/08/24 04:02:02;;;;;;;5.68;4.38;;;17.90;99.90;;;;;;5050544;28;20037;-52
2023/08/24 04:04:28;;;;;;;7.03;4.07;;;17.90;99.90;;;;;;5051887;28;20033;-50
2023/08/24 04:06:53;;;;;;;7.20;4.38;;;17.90;99.90;;;;;;5053231;28;20143;-53
2023/08/24 04:09:19;;;;;;;7.60;4.32;;;17.90;99.90;;;;;;5052054;28;20017;-53
2023/08/24 04:11:45;;;;;;;7.82;4.72;;;17.90;99.90;;;;;;5053061;28;20451;-53
2023/08/24 04:14:10;;;;;;;9.60;4.78;;;17.80;99.90;;;;;;5052109;28;20543;-52
2023/08/24 04:16:36;;;;;;;8.05;5.32;;;17.70;99.90;;;;;;5053117;28;20037;-50
2023/08/24 04:19:01;;;;;;;10.10;4.57;;;17.60;99.90;;;;;;5053343;28;20033;-53
2023/08/24 04:21:27;;;;;;;7.90;4.45;;;17.70;99.90;;;;;;5052970;28;20048;-53
2023/08/24 04:23:53;;;;;;;9.30;4.75;;;17.70;99.90;;;;;;5050649;28;20068;-52
2023/08/24 04:26:19;;;;;;;10.05;4.95;;;17.70;99.90;;;;;;5052777;28;20028;-39
2023/08/24 04:28:44;;;;;;;10.30;4.35;;;17.60;99.90;;;;;;5052825;28;20067;-39
2023/08/24 04:31:10;;;;;;;10.23;4.95;;;17.60;99.90;;;;;;5052555;28;20117;-42
2023/08/24 04:33:36;;;;;;;7.65;5.03;;;17.60;99.90;;;;;;5051602;28;20370;-39
2023/08/24 04:36:03;;;;;;;6.97;4.32;;;17.60;99.90;;;;;;5053069;28;20029;-42
2023/08/24 04:38:29;;;;;;;8.73;5.05;;;17.50;99.90;;;;;;5052953;28;20036;-41
2023/08/24 04:40:55;;;;;;;11.10;4.85;;;17.60;99.90;;;;;;5052741;28;20398;-53
2023/08/24 04:43:24;;;;;;;6.55;3.65;;;17.60;99.90;;;;;;5052144;28;20041;-53
2023/08/24 04:45:53;;;;;;;6.35;4.10;;;17.70;99.90;;;;;;5052597;28;20481;-50
2023/08/24 04:48:23;;;;;;;7.70;3.97;;;17.70;99.90;;;;;;5034357;28;20021;-52
2023/08/24 04:50:49;;;;;;;5.82;4.28;;;17.70;99.90;;;;;;5051450;28;20021;-52
2023/08/24 04:53:16;;;;;;;11.63;4.55;;;17.70;99.90;;;;;;5052947;28;20021;-50
2023/08/24 04:55:43;;;;;;;6.70;4.38;;;17.70;99.90;;;;;;5034856;28;20551;-53
2023/08/24 04:58:09;;;;;;;8.82;4.38;;;17.70;99.90;;;;;;5034237;28;20044;-53
2023/08/24 05:00:36;;;;;;;7.45;5.28;;;17.70;99.90;;;;;;5051882;28;20686;-57
2023/08/24 05:03:02;;;;;;;15.00;5.30;;;17.70;99.90;;;;;;5052353;28;20040;-54
2023/08/24 05:05:35;;;;;;;8.37;5.33;;;17.70;99.90;;;;;;5052564;28;20060;-41
2023/08/24 05:08:02;;;;;;;7.35;5.07;;;17.70;99.90;;;;;;5051210;28;20497;-40
2023/08/24 05:10:32;;;;;;;8.18;5.18;;;17.70;99.90;;;;;;5051794;28;20041;-40
2023/08/24 05:12:57;;;;;;;11.95;5.57;;;17.80;99.90;;;;;;5052239;28;20062;-40
2023/08/24 05:15:23;;;;;;;7.53;4.90;;;17.80;99.90;;;;;;5051088;28;20478;-42
2023/08/24 05:17:50;;;;;;;7.00;4.40;;;17.80;99.90;;;;;;5051672;28;20083;-40
2023/08/24 05:20:15;;;;;;;10.48;5.40;;;17.80;99.90;;;;;;5051825;28;20021;-39
2023/08/24 05:22:41;;;;;;;9.60;5.60;;;17.90;99.90;;;;;;5049631;28;20378;-40
2023/08/24 05:25:07;;;;;;;8.80;5.03;;;17.90;99.90;;;;;;5032106;28;20543;-52
2023/08/24 05:27:33;;;;;;;6.97;5.00;;;17.90;99.90;;;;;;5036751;28;20021;-57
2023/08/24 05:29:58;;;;;;;8.65;5.45;;;18.00;99.90;;;;;;5051175;28;20102;-53
2023/08/24 05:32:24;;;;;;;9.75;5.15;;;18.00;99.90;;;;;;5047314;28;20037;-52
2023/08/24 05:34:50;;;;;;;11.35;6.47;;;18.00;99.90;;;;;;5043456;28;20417;-53
2023/08/24 05:37:16;;;;;;;8.50;5.22;;;18.10;99.90;;;;;;5042312;28;20482;-52
2023/08/24 05:39:42;;;;;;;7.63;5.63;;;18.10;99.90;;;;;;5052162;28;20521;-53
2023/08/24 05:42:09;;;;;;;11.82;6.05;;;18.10;99.90;;;;;;5034165;28;20064;-53
2023/08/24 05:44:34;;;;;;;12.15;5.53;;;18.10;99.90;;;;;;5052058;28;20087;-54
2023/08/24 05:47:00;;;;;;;7.78;5.25;;;18.20;99.90;;;;;;5051169;28;20033;-52
2023/08/24 05:49:26;;;;;;;9.93;4.90;;;18.20;99.90;;;;;;5052424;28;20074;-53
2023/08/24 05:51:52;;;;;;;10.15;5.68;;;18.20;99.90;;;;;;5052132;28;20029;-52
2023/08/24 05:54:18;;;;;;;8.73;5.45;;;18.20;99.90;;;;;;5051806;28;20091;-52
2023/08/24 05:56:47;;;;;;;10.73;5.57;;;18.30;99.90;;;;;;5051811;28;20036;-53
2023/08/24 05:59:14;;;;;;;10.52;5.38;;;18.30;99.90;;;;;;5053680;28;20033;-51
2023/08/24 06:01:41;;;;;;;8.02;5.32;;;18.40;99.90;;;;;;5054940;28;20082;-53
2023/08/24 06:04:09;;;;;;;12.77;4.95;;;18.50;99.90;;;;;;5055050;28;20056;-53
2023/08/24 06:06:35;;;;;;;7.88;4.80;;;18.60;99.90;;;;;;5055491;28;20031;-53
2023/08/24 06:09:04;;;;;;;8.32;5.38;;;18.60;99.90;;;;;;5055760;28;20021;-53
2023/08/24 06:11:30;;;;;;;11.05;5.78;;;18.80;99.90;;;;;;5055491;28;20504;-51
2023/08/24 06:13:56;;;;;;;8.93;4.90;;;18.90;99.90;;;;;;5055110;28;20033;-51
2023/08/24 06:16:21;;;;;;;11.00;4.93;;;19.00;99.90;;;;;;5060652;28;20029;-57
2023/08/24 06:18:49;;;;;;;7.00;5.00;;;19.00;99.90;;;;;;5067670;28;20068;-41
2023/08/24 06:21:15;;;;;;;10.70;5.30;;;19.10;99.90;;;;;;5054441;28;20428;-39
2023/08/24 06:23:41;;;;;;;12.93;4.90;;;19.20;99.90;;;;;;5054783;28;20037;-39
2023/08/24 06:26:06;;;;;;;11.55;5.53;;;19.20;99.90;;;;;;5055360;28;20021;-40
2023/08/24 06:28:32;;;;;;;8.13;4.75;;;19.30;99.90;;;;;;5054940;28;20116;-43
2023/08/24 06:31:00;;;;;;;9.38;5.75;;;19.40;99.90;;;;;;5054780;28;20460;-42
2023/08/24 06:33:32;;;;;;;7.68;4.90;;;19.50;99.90;;;;;;5055038;28;20413;-43
2023/08/24 06:35:58;;;;;;;8.40;5.18;;;19.60;99.90;;;;;;5054860;28;20032;-39
2023/08/24 06:38:24;;;;;;;6.78;4.65;;;19.70;99.90;;;;;;5051952;28;20044;-41
2023/08/24 06:40:50;;;;;;;13.50;5.53;;;19.90;99.90;;;;;;5047684;28;20520;-40
2023/08/24 06:43:16;;;;;;;8.88;4.95;;;20.00;99.90;;;;;;5053313;28;20064;-40
2023/08/24 06:45:41;;;;;;;9.13;4.93;;;20.00;99.90;;;;;;5048667;28;20417;-42
2023/08/24 06:48:07;;;;;;;8.82;5.28;;;20.20;99.90;;;;;;5050829;28;20517;-43
2023/08/24 06:50:36;;;;;;;8.30;5.30;;;20.20;99.90;;;;;;5052936;28;20378;-41
2023/08/24 06:53:03;;;;;;;7.45;5.70;;;20.30;99.90;;;;;;5053903;28;20103;-43
2023/08/24 06:55:29;;;;;;;10.70;5.28;;;20.50;99.90;;;;;;5049887;28;20021;-41
2023/08/24 06:57:55;;;;;;;10.93;5.88;;;20.50;99.90;;;;;;5053194;28;20028;-41
2023/08/24 07:00:20;;;;;;;8.70;4.65;;;20.70;99.90;;;;;;5053970;28;20025;-41
2023/08/24 07:02:47;;;;;;;14.50;6.13;;;20.80;99.90;;;;;;5050760;28;20029;-40
2023/08/24 07:05:13;;;;;;;7.63;5.20;;;20.90;99.90;;;;;;5053449;28;20108;-40
2023/08/24 07:07:40;;;;;;;13.73;5.57;;;21.00;99.90;;;;;;5050502;28;20052;-41
2023/08/24 07:10:06;;;;;;;10.10;5.45;;;21.20;99.90;;;;;;5050827;28;20029;-40
2023/08/24 07:12:32;;;;;;;11.05;5.40;;;21.30;99.90;;;;;;5051593;28;20017;-41
2023/08/24 07:14:58;;;;;;;8.90;5.53;;;21.40;99.90;;;;;;5052315;28;20132;-44
2023/08/24 07:17:24;;;;;;;10.90;5.18;;;21.60;99.90;;;;;;5053134;28;20104;-39
2023/08/24 07:19:50;;;;;;;13.38;5.75;;;21.70;99.90;;;;;;5050872;28;20830;-53
2023/08/24 07:22:15;;;;;;;7.15;5.05;;;21.90;99.90;;;;;;5051325;28;20048;-42
2023/08/24 07:24:41;;;;;;;8.98;5.28;;;22.00;99.90;;;;;;5050422;28;20075;-40
2023/08/24 07:27:08;;;;;;;11.45;5.22;;;22.10;99.90;;;;;;5053179;28;20521;-41
2023/08/24 07:29:34;;;;;;;7.80;4.70;;;22.20;99.90;;;;;;5053126;28;20017;-39
2023/08/24 07:32:00;;;;;;;11.90;4.85;;;22.30;99.90;;;;;;5053511;28;20052;-43
2023/08/24 07:34:26;;;;;;;8.18;4.60;;;22.50;99.90;;;;;;5052446;28;20397;-39
2023/08/24 07:36:51;;;;;;;9.25;5.65;;;22.60;99.90;;;;;;5050186;28;20033;-40
2023/08/24 07:39:17;;;;;;;6.60;4.47;;;22.80;99.90;;;;;;5049910;28;20583;-38
2023/08/24 07:41:44;;;;;;;8.93;4.85;;;22.90;99.90;;;;;;5050624;28;20052;-42
2023/08/24 07:44:10;;;;;;;9.23;5.72;;;23.00;99.90;;;;;;5046935;28;20028;-42
2023/08/24 07:46:35;;;;;;;8.60;4.90;;;23.20;99.90;;;;;;5045951;28;20485;-41
2023/08/24 07:49:01;;;;;;;9.15;4.80;;;23.30;99.90;;;;;;5050489;28;20430;-40
2023/08/24 07:51:28;;;;;;;9.20;5.07;;;23.40;99.90;;;;;;5049657;28;20028;-39
2023/08/24 07:53:54;;;;;;;9.63;5.17;;;23.60;99.90;;;;;;5045203;28;20037;-40
2023/08/24 07:56:20;;;;;;;7.60;4.00;;;23.70;99.90;;;;;;5045418;28;20355;-40
2023/08/24 07:58:45;;;;;;;7.22;3.70;;;23.90;99.90;;;;;;5053382;28;20025;-43
2023/08/24 08:01:11;;;;;;;12.52;4.75;;;24.00;99.90;;;;;;5031451;28;20493;-39
2023/08/24 08:03:37;;;;;;;9.63;4.78;;;24.10;99.90;;;;;;5031202;28;20021;-41
2023/08/24 08:06:04;;;;;;;5.90;4.07;;;24.20;99.90;;;;;;5035385;28;20519;-40
2023/08/24 08:08:30;;;;;;;9.63;4.93;;;24.20;99.90;;;;;;5051567;28;20078;-43
2023/08/24 08:11:00;;;;;;;6.45;4.60;;;24.10;99.90;;;;;;5051989;28;20029;-42
2023/08/24 08:13:27;;;;;;;6.40;4.55;;;24.10;99.90;;;;;;5051268;28;20043;-41
2023/08/24 08:15:53;;;;;;;4.03;3.67;;;24.10;99.90;;;;;;5034950;28;20120;-40
2023/08/24 08:18:19;;;;;;;6.32;4.70;;;24.10;99.90;;;;;;5073325;28;20358;-38
2023/08/24 08:20:44;;;;;;;12.15;4.43;;;24.20;99.90;;;;;;5061256;28;20055;-40
2023/08/24 08:23:10;;;;;;;7.90;4.75;;;24.30;99.90;;;;;;5051709;28;20025;-41
2023/08/24 08:25:36;;;;;;;9.38;5.35;;;24.30;99.90;;;;;;5051021;28;20059;-42
2023/08/24 08:28:01;;;;;;;8.65;5.00;;;24.30;99.90;;;;;;5053209;28;20477;-53
2023/08/24 08:30:27;;;;;;;8.88;5.22;;;24.30;99.90;;;;;;5050844;28;20024;-52
2023/08/24 08:32:54;;;;;;;14.70;4.78;;;24.30;99.90;;;;;;5050621;28;20405;-55
2023/08/24 08:35:21;;;;;;;23.00;5.35;;;24.20;99.90;;;;;;5051558;28;20029;-60
2023/08/24 08:37:49;;;;;;;;;;;24.10;99.90;;;;;;5052488;28;20029;-51
2023/08/24 08:40:15;;;;;;;8.60;4.78;;;24.20;99.90;;;;;;5049446;28;20333;-44
2023/08/24 08:42:41;;;;;;;10.35;5.93;;;24.20;99.90;;;;;;5034197;28;20041;-53
2023/08/24 08:45:10;;;;;;;15.07;5.20;;;24.20;99.90;;;;;;5048096;28;20113;-53
2023/08/24 08:47:37;;;;;;;8.65;5.97;;;24.30;99.90;;;;;;5052482;28;20044;-55
2023/08/24 08:50:04;;;;;;;7.45;5.10;;;24.40;99.90;;;;;;5052723;28;20482;-55
2023/08/24 08:52:31;;;;;;;;;;;24.40;99.90;;;;;;5052999;28;20100;-52
2023/08/24 08:54:56;;;;;;;11.55;6.65;;;24.50;99.90;;;;;;5051639;28;20384;-55
2023/08/24 08:57:25;;;;;;;8.27;6.18;;;24.60;99.90;;;;;;5048353;28;20022;-53
2023/08/24 08:59:52;;;;;;;9.93;6.50;;;24.60;99.90;;;;;;5051336;28;20025;-53
2023/08/24 09:02:19;;;;;;;14.30;5.60;;;24.60;99.90;;;;;;5052414;28;20037;-50
2023/08/24 09:04:45;;;;;;;8.77;6.55;;;24.70;99.90;;;;;;5052615;28;20359;-53
2023/08/24 09:07:13;;;;;;;9.93;5.20;;;24.90;99.90;;;;;;5052514;28;20146;-53
2023/08/24 09:09:39;;;;;;;7.32;6.20;;;24.90;99.90;;;;;;5048933;28;20028;-53
2023/08/24 09:12:06;;;;;;;11.00;5.50;;;25.10;99.90;;;;;;5047955;28;20021;-53
2023/08/24 09:14:33;;;;;;;9.35;5.28;;;25.20;99.90;;;;;;5049455;28;20460;-53
2023/08/24 09:16:59;;;;;;;6.85;4.80;;;25.40;99.90;;;;;;5028305;28;20082;-52
2023/08/24 09:19:29;;;;;;;8.02;5.40;;;25.60;99.90;;;;;;5043971;28;20025;-54
2023/08/24 09:21:59;;;;;;;8.95;5.35;;;25.80;99.90;;;;;;5048342;28;20029;-48
2023/08/24 09:24:33;;;;;;;9.70;5.13;;;26.00;99.90;;;;;;5050514;28;20047;-60
2023/08/24 09:27:00;;;;;;;9.45;4.50;;;26.20;99.90;;;;;;5052365;28;20086;-57
2023/08/24 09:29:26;;;;;;;9.45;4.13;;;26.30;99.90;;;;;;5049737;28;20025;-53
2023/08/24 09:31:52;;;;;;;9.65;4.63;;;26.30;99.90;;;;;;5049769;28;20041;-38
2023/08/24 09:34:26;;;;;;;7.97;4.50;;;26.50;99.90;;;;;;5053760;28;20389;-40
2023/08/24 09:36:52;;;;;;;12.40;3.83;;;26.50;99.90;;;;;;5056121;28;20060;-41
2023/08/24 09:39:19;;;;;;;8.13;4.40;;;26.40;99.90;;;;;;5055850;28;20049;-39
2023/08/24 09:41:46;;;;;;;;;;;26.40;99.90;;;;;;5055889;28;20112;-39
2023/08/24 09:44:12;;;;;;;12.90;4.85;;;26.40;99.90;;;;;;5056204;28;19943;-53
2023/08/24 09:46:38;;;;;;;6.13;4.38;;;26.40;99.90;;;;;;5054903;28;20036;-52
2023/08/24 09:49:07;;;;;;;4.75;3.88;;;26.30;99.90;;;;;;5055895;28;20401;-52
2023/08/24 09:51:34;;;;;;;9.90;4.30;;;26.30;99.90;;;;;;5054882;28;20027;-53
2023/08/24 09:54:06;;;;;;;11.13;5.03;;;26.10;99.90;;;;;;5055421;28;20036;-55
2023/08/24 09:56:38;;;;;;;6.20;4.40;;;26.10;99.90;;;;;;5055660;28;20104;-57
2023/08/24 09:59:13;;;;;;;7.00;4.28;;;26.10;99.90;;;;;;5054935;28;20070;-55
2023/08/24 10:01:43;;;;;;;4.45;3.70;;;25.90;99.90;;;;;;5055818;28;20507;-56
2023/08/24 10:04:11;;;;;;;12.30;4.80;;;25.70;99.90;;;;;;5055539;28;20063;-53
2023/08/24 10:06:39;;;;;;;5.78;3.92;;;25.70;99.90;;;;;;5055802;28;20029;-39
2023/08/24 10:09:09;;;;;;;8.02;4.43;;;25.50;99.90;;;;;;5055283;28;20032;-39
2023/08/24 10:11:41;;;;;;;7.72;4.13;;;25.50;99.90;;;;;;5053864;28;20051;-39
2023/08/24 10:14:07;;;;;;;10.10;4.30;;;25.40;99.90;;;;;;5048842;28;20494;-40
2023/08/24 10:16:35;;;;;;;10.95;4.95;;;25.40;99.90;;;;;;5054150;28;20064;-40
2023/08/24 10:19:03;;;;;;;17.65;5.15;;;25.30;99.90;;;;;;5054527;28;20025;-39
2023/08/24 10:21:29;;;;;;;6.55;5.05;;;25.20;99.90;;;;;;5035513;28;20041;-38
2023/08/24 10:23:58;;;;;;;7.25;4.38;;;25.00;99.90;;;;;;5042205;28;20033;-39
2023/08/24 10:26:24;;;;;;;8.70;4.75;;;24.90;99.90;;;;;;5054974;28;20025;-40
2023/08/24 10:28:52;;;;;;;7.00;4.35;;;24.80;99.90;;;;;;5055096;28;20029;-39
2023/08/24 10:31:19;;;;;;;8.10;5.63;;;24.80;99.90;;;;;;5032344;28;20041;-40
2023/08/24 10:33:49;;;;;;;8.50;5.38;;;24.70;99.90;;;;;;5048297;28;20473;-40
2023/08/24 10:36:15;;;;;;;11.07;6.00;;;24.70;99.90;;;;;;5053532;28;20390;-41
2023/08/24 10:38:44;;;;;;;14.20;5.40;;;24.70;99.90;;;;;;5053596;28;20045;-44
2023/08/24 10:41:13;;;;;;;12.35;5.78;;;24.60;99.90;;;;;;5043125;28;20037;-39
2023/08/24 10:43:40;;;;;;;9.98;5.93;;;24.50;99.90;;;;;;5046029;28;20400;-38
2023/08/24 10:46:14;;;;;;;13.98;6.55;;;24.50;99.90;;;;;;5051649;28;20473;-39
2023/08/24 10:48:46;;;;;;;21.63;7.53;;;24.40;99.90;;;;;;5049237;28;20024;-41
2023/08/24 10:51:19;;;;;;;10.55;7.32;;;24.40;99.90;;;;;;5053594;28;20562;-39
2023/08/24 10:53:47;;;;;;;15.48;6.95;;;24.40;99.90;;;;;;5053572;28;20037;-41
2023/08/24 10:56:15;;;;;;;21.45;7.35;;;24.40;99.90;;;;;;5054525;28;20093;-41
2023/08/24 10:58:42;;;;;;;10.00;6.75;;;24.30;99.90;;;;;;5054733;28;20135;-38
2023/08/24 11:01:23;;;;;;;11.50;7.82;;;24.30;99.90;;;;;;5054405;28;20040;-40
2023/08/24 11:03:50;;;;;;;12.07;8.10;;;24.40;99.90;;;;;;5054341;28;20029;-41
2023/08/24 11:06:24;;;;;;;11.70;8.25;;;24.40;99.90;;;;;;5054659;28;20385;-37
2023/08/24 11:09:14;;;;;;;9.32;6.53;;;24.50;99.90;;;;;;5054338;28;20025;-40
2023/08/24 11:11:41;;;;;;;16.88;8.23;;;24.40;99.90;;;;;;5052301;28;20091;-38
2023/08/24 11:14:19;;;;;;;20.52;9.55;;;24.50;99.90;;;;;;5051540;28;20029;-40
2023/08/24 11:16:49;;;;;;;17.45;9.52;;;24.50;99.90;;;;;;5042938;28;20033;-39
2023/08/24 11:19:15;;;;;;;14.90;8.48;;;24.50;99.90;;;;;;5054144;28;20032;-39
2023/08/24 11:21:43;;;;;;;13.63;7.78;;;24.50;99.90;;;;;;5054267;28;20120;-41
2023/08/24 11:24:10;;;;;;;12.13;8.27;;;24.50;99.90;;;;;;5053901;28;20500;-39
2023/08/24 11:26:43;;;;;;;20.75;9.57;;;24.60;99.90;;;;;;5064941;28;20550;-38
2023/08/24 11:29:09;;;;;;;15.90;9.38;;;24.60;99.90;;;;;;5054051;28;20358;-39
2023/08/24 11:31:36;;;;;;;13.95;9.48;;;24.70;99.90;;;;;;5053736;28;20513;-41
2023/08/24 11:34:03;;;;;;;14.60;8.25;;;24.60;99.90;;;;;;5053820;28;20028;-38
2023/08/24 11:36:28;;;;;;;15.15;8.73;;;24.70;99.90;;;;;;5053800;28;20025;-42
2023/08/24 11:38:58;;;;;;;19.75;9.73;;;24.70;99.90;;;;;;5053790;28;20020;-55
2023/08/24 11:41:25;;;;;;;17.08;8.48;;;24.80;99.90;;;;;;5053642;28;20025;-37
2023/08/24 11:43:59;;;;;;;20.30;8.97;;;24.80;99.90;;;;;;5052901;28;20032;-40
2023/08/24 11:46:27;;;;;;;13.18;7.68;;;24.80;99.90;;;;;;5053591;28;20263;-42
2023/08/24 11:48:53;;;;;;;13.23;8.90;;;24.90;99.90;;;;;;5053551;28;20037;-39
2023/08/24 11:51:19;;;;;;;12.20;8.07;;;25.00;99.90;;;;;;5053561;28;20029;-38
2023/08/24 11:53:45;;;;;;;15.57;7.15;;;25.10;99.90;;;;;;5053463;28;20078;-39
2023/08/24 11:56:16;;;;;;;13.05;8.60;;;25.20;99.90;;;;;;5053417;28;20078;-39
2023/08/24 11:58:43;;;;;;;13.70;8.98;;;25.20;99.90;;;;;;5053630;28;20504;-39
2023/08/24 12:01:10;;;;;;;17.63;9.30;;;25.20;99.90;;;;;;5052319;28;20033;-39
2023/08/24 12:03:37;;;;;;;13.80;9.60;;;25.40;99.90;;;;;;5053411;28;20420;-42
2023/08/24 12:06:09;;;;;;;;;;;25.70;99.90;;;;;;5053657;28;20061;-39
2023/08/24 12:08:38;;;;;;;10.90;6.68;;;26.00;99.90;;;;;;5053234;28;19909;-42
2023/08/24 12:11:28;;;;;;;19.90;9.35;;;26.40;99.90;;;;;;5071580;28;20527;-45
2023/08/24 12:13:54;;;;;;;10.18;6.75;;;26.60;99.90;;;;;;5073165;28;20480;-39
2023/08/24 12:16:22;;;;;;;14.93;7.78;;;26.50;99.90;;;;;;5067825;28;20106;-39
2023/08/24 12:18:53;;;;;;;11.77;7.22;;;26.40;99.90;;;;;;5051954;28;20112;-40
2023/08/24 12:21:20;;;;;;;17.15;8.63;;;26.30;99.90;;;;;;5052895;28;20028;-44
2023/08/24 12:24:00;;;;;;;8.52;7.15;;;26.20;99.90;;;;;;5053134;28;20029;-38
2023/08/24 12:26:27;;;;;;;12.40;7.95;;;26.10;99.90;;;;;;5052881;28;20045;-42
2023/08/24 12:28:55;;;;;;;12.10;6.65;;;26.20;99.90;;;;;;5052930;28;20024;-42
2023/08/24 12:31:25;;;;;;;11.85;6.80;;;26.00;99.90;;;;;;5052890;28;20025;-40
2023/08/24 12:34:00;;;;;;;19.50;8.02;;;25.90;99.90;;;;;;5053020;28;20029;-41
2023/08/24 12:36:26;;;;;;;12.45;7.95;;;25.90;99.90;;;;;;5051869;28;20037;-41
2023/08/24 12:38:51;;;;;;;13.77;7.78;;;25.90;99.90;;;;;;5052738;28;20036;-39
2023/08/24 12:41:17;;;;;;;13.45;8.10;;;26.00;99.90;;;;;;5052757;28;20063;-40
2023/08/24 12:43:43;;;;;;;11.40;7.00;;;26.10;99.90;;;;;;5052644;28;20081;-39
2023/08/24 12:46:09;;;;;;;14.52;7.65;;;26.20;99.90;;;;;;5052734;28;20537;-41